Time;durP1;ratioP1;P1;durP2;ratioP2;P2;SDS_P1;SDS_P2;PMS_P1;PMS_P2;Temp;Humidity;BMP_temperature;BMP_pressure;BME280_temperature;BME280_humidity;BME280_pressure;Samples;Min_cycle;Max_cycle;Signal;HPM_P1;HPM_P2
2023/07/25 00:01:02;;;;;;;20.25;10.07;;;22.50;99.90;;;;;;5115450;28;20106;-56
2023/07/25 00:03:28;;;;;;;25.65;10.85;;;22.60;99.90;;;;;;5115202;28;20385;-56
2023/07/25 00:05:54;;;;;;;26.23;10.30;;;22.50;99.90;;;;;;5115429;28;20028;-57
2023/07/25 00:08:20;;;;;;;22.55;9.93;;;22.50;99.90;;;;;;5115179;28;20114;-56
2023/07/25 00:10:46;;;;;;;26.00;10.57;;;22.50;99.90;;;;;;5114908;28;20031;-56
2023/07/25 00:13:12;;;;;;;20.15;9.90;;;22.50;99.90;;;;;;5115221;28;20020;-56
2023/07/25 00:15:38;;;;;;;23.50;10.23;;;22.50;99.90;;;;;;5115235;28;20027;-56
2023/07/25 00:18:04;;;;;;;24.08;9.93;;;22.50;99.90;;;;;;5114999;28;20057;-56
2023/07/25 00:20:31;;;;;;;23.85;10.80;;;22.50;99.90;;;;;;5115106;28;20081;-56
2023/07/25 00:22:57;;;;;;;23.90;10.00;;;22.40;99.90;;;;;;5095042;28;20044;-56
2023/07/25 00:25:23;;;;;;;20.83;9.88;;;22.50;99.90;;;;;;5094406;28;20032;-56
2023/07/25 00:27:49;;;;;;;24.20;10.23;;;22.40;99.90;;;;;;5095058;28;20462;-56
2023/07/25 00:30:16;;;;;;;22.15;9.88;;;22.40;99.90;;;;;;5093461;28;20023;-56
2023/07/25 00:32:42;;;;;;;24.83;9.38;;;22.40;99.90;;;;;;5094336;28;20039;-56
2023/07/25 00:35:08;;;;;;;21.15;9.38;;;22.40;99.90;;;;;;5094661;28;20500;-56
2023/07/25 00:37:34;;;;;;;23.88;10.23;;;22.40;99.90;;;;;;5094620;28;20024;-56
2023/07/25 00:40:00;;;;;;;20.65;9.73;;;22.40;99.90;;;;;;5095003;28;20035;-56
2023/07/25 00:42:26;;;;;;;28.02;10.20;;;22.40;99.90;;;;;;5097599;28;20036;-56
2023/07/25 00:44:52;;;;;;;22.30;10.13;;;22.50;99.90;;;;;;5098673;28;20028;-56
2023/07/25 00:47:21;;;;;;;22.85;9.55;;;22.40;99.90;;;;;;5097182;28;20104;-56
2023/07/25 00:49:47;;;;;;;23.33;8.88;;;22.50;99.90;;;;;;5098648;28;20227;-56
2023/07/25 00:52:14;;;;;;;24.17;8.63;;;22.50;99.90;;;;;;5098512;28;20032;-56
2023/07/25 00:54:47;;;;;;;22.73;8.65;;;22.50;99.90;;;;;;5098425;28;20071;-56
2023/07/25 00:57:15;;;;;;;23.20;9.43;;;22.50;99.90;;;;;;5097225;28;20028;-56
2023/07/25 00:59:41;;;;;;;24.10;9.68;;;22.50;99.90;;;;;;5097159;28;20085;-56
2023/07/25 01:02:07;;;;;;;29.85;10.38;;;22.50;99.90;;;;;;5096974;28;20044;-56
2023/07/25 01:04:35;;;;;;;20.13;9.30;;;22.40;99.90;;;;;;5097126;28;20439;-56
2023/07/25 01:07:02;;;;;;;24.02;9.32;;;22.40;99.90;;;;;;5098421;28;20385;-56
2023/07/25 01:09:35;;;;;;;19.05;8.48;;;22.40;99.90;;;;;;5096912;28;20024;-56
2023/07/25 01:12:02;;;;;;;28.25;10.00;;;22.40;99.90;;;;;;5098097;28;20105;-56
2023/07/25 01:14:32;;;;;;;17.60;9.43;;;22.40;99.90;;;;;;5098132;28;20024;-56
2023/07/25 01:17:09;;;;;;;21.05;8.75;;;22.40;99.90;;;;;;5098285;28;20048;-56
2023/07/25 01:19:39;;;;;;;22.60;9.63;;;22.40;99.90;;;;;;5096720;28;20024;-57
2023/07/25 01:22:06;;;;;;;26.40;8.77;;;22.40;99.90;;;;;;5110752;28;20031;-56
2023/07/25 01:24:33;;;;;;;23.35;8.55;;;22.30;99.90;;;;;;5118268;28;20051;-56
2023/07/25 01:26:59;;;;;;;20.33;9.18;;;22.30;99.90;;;;;;5118489;28;20221;-56
2023/07/25 01:29:25;;;;;;;24.50;8.98;;;22.40;99.90;;;;;;5116926;28;20388;-56
2023/07/25 01:31:51;;;;;;;20.48;8.38;;;22.50;99.90;;;;;;5116772;28;20028;-56
2023/07/25 01:34:17;;;;;;;21.38;7.82;;;22.40;99.90;;;;;;5118368;28;20016;-56
2023/07/25 01:36:43;;;;;;;23.20;8.05;;;22.50;99.90;;;;;;5118057;28;20053;-56
2023/07/25 01:39:09;;;;;;;18.83;7.97;;;22.60;99.90;;;;;;5116978;28;20537;-56
2023/07/25 01:41:35;;;;;;;15.40;7.05;;;22.60;99.90;;;;;;5118083;28;20027;-56
2023/07/25 01:44:01;;;;;;;20.27;7.97;;;22.60;99.90;;;;;;5116430;28;20560;-56
2023/07/25 01:46:27;;;;;;;22.08;8.70;;;22.50;99.90;;;;;;5117995;28;20479;-56
2023/07/25 01:48:53;;;;;;;22.70;8.82;;;22.40;99.90;;;;;;5117906;28;20472;-56
2023/07/25 01:51:19;;;;;;;21.25;8.38;;;22.50;99.90;;;;;;5117100;28;20038;-56
2023/07/25 01:53:45;;;;;;;20.48;8.32;;;22.50;99.90;;;;;;5117433;28;20028;-57
2023/07/25 01:56:11;;;;;;;22.10;8.25;;;22.60;99.90;;;;;;5116387;28;20034;-56
2023/07/25 01:58:37;;;;;;;25.13;9.02;;;22.60;99.90;;;;;;5116330;28;20038;-56
2023/07/25 02:01:02;;;;;;;23.05;7.97;;;22.50;99.90;;;;;;5116324;28;20024;-56
2023/07/25 02:03:29;;;;;;;23.40;8.60;;;22.50;99.90;;;;;;5117825;28;20023;-56
2023/07/25 02:05:55;;;;;;;22.92;8.07;;;22.50;99.90;;;;;;5117721;28;20447;-56
2023/07/25 02:08:21;;;;;;;21.90;7.97;;;22.50;99.90;;;;;;5116237;28;20062;-56
2023/07/25 02:10:47;;;;;;;22.55;8.10;;;22.50;99.90;;;;;;5116307;28;20473;-56
2023/07/25 02:13:13;;;;;;;27.42;9.55;;;22.50;99.90;;;;;;5117335;28;20059;-56
2023/07/25 02:15:39;;;;;;;17.63;8.30;;;22.40;99.90;;;;;;5116177;28;20028;-56
2023/07/25 02:18:05;;;;;;;20.85;8.55;;;22.40;99.90;;;;;;5116113;28;20620;-56
2023/07/25 02:20:31;;;;;;;22.85;8.52;;;22.40;99.90;;;;;;5115950;28;20381;-56
2023/07/25 02:22:58;;;;;;;22.42;7.93;;;22.40;99.90;;;;;;5095882;28;20040;-57
2023/07/25 02:25:26;;;;;;;22.88;8.27;;;22.40;99.90;;;;;;5095524;28;20065;-56
2023/07/25 02:27:52;;;;;;;30.88;8.30;;;22.30;99.90;;;;;;5096776;28;20028;-56
2023/07/25 02:30:18;;;;;;;26.70;10.20;;;22.40;99.90;;;;;;5095406;28;20477;-56
2023/07/25 02:32:44;;;;;;;26.65;10.00;;;22.40;99.90;;;;;;5095257;28;20028;-56
2023/07/25 02:35:10;;;;;;;16.65;9.00;;;22.40;99.90;;;;;;5095426;28;20039;-56
2023/07/25 02:37:36;;;;;;;23.13;8.77;;;22.30;99.90;;;;;;5096663;28;20103;-56
2023/07/25 02:40:02;;;;;;;23.42;8.48;;;22.20;99.90;;;;;;5095141;28;20028;-56
2023/07/25 02:42:28;;;;;;;20.13;8.90;;;22.20;99.90;;;;;;5095312;28;20431;-56
2023/07/25 02:44:54;;;;;;;20.40;8.45;;;22.20;99.90;;;;;;5096398;28;20081;-56
2023/07/25 02:47:20;;;;;;;18.70;7.82;;;22.10;99.90;;;;;;5096266;28;20028;-56
2023/07/25 02:49:47;;;;;;;19.45;7.93;;;22.10;99.90;;;;;;5095114;28;20024;-56
2023/07/25 02:52:13;;;;;;;27.40;8.18;;;22.10;99.90;;;;;;5096216;28;20027;-56
2023/07/25 02:54:39;;;;;;;21.45;8.20;;;22.10;99.90;;;;;;5096153;28;20509;-56
2023/07/25 02:57:05;;;;;;;22.20;7.32;;;22.10;99.90;;;;;;5096136;28;20047;-56
2023/07/25 02:59:31;;;;;;;25.17;7.70;;;22.10;99.90;;;;;;5095984;28;20417;-56
2023/07/25 03:01:57;;;;;;;18.10;7.90;;;22.10;99.90;;;;;;5095943;28;20024;-56
2023/07/25 03:04:23;;;;;;;18.73;7.28;;;22.10;99.90;;;;;;5095803;28;20161;-56
2023/07/25 03:06:49;;;;;;;25.27;8.45;;;22.10;99.90;;;;;;5095851;28;20139;-56
2023/07/25 03:09:15;;;;;;;18.35;7.38;;;22.00;99.90;;;;;;5094315;28;20489;-56
2023/07/25 03:11:41;;;;;;;24.05;9.15;;;21.90;99.90;;;;;;5095822;28;20024;-56
2023/07/25 03:14:07;;;;;;;25.60;7.57;;;21.90;99.90;;;;;;5095652;28;20024;-56
2023/07/25 03:16:33;;;;;;;22.80;7.35;;;21.90;99.90;;;;;;5094342;28;20028;-56
2023/07/25 03:18:59;;;;;;;24.85;8.18;;;21.80;99.90;;;;;;5095859;28;20415;-56
2023/07/25 03:21:25;;;;;;;26.33;8.00;;;21.80;99.90;;;;;;5101404;28;20381;-56
2023/07/25 03:23:51;;;;;;;22.88;8.32;;;21.90;99.90;;;;;;5115885;28;20126;-56
2023/07/25 03:26:17;;;;;;;15.23;8.27;;;21.80;99.90;;;;;;5114771;28;20404;-56
2023/07/25 03:28:43;;;;;;;20.23;8.20;;;21.80;99.90;;;;;;5114649;28;20507;-56
2023/07/25 03:31:09;;;;;;;19.27;7.63;;;21.70;99.90;;;;;;5115715;28;20035;-56
2023/07/25 03:33:35;;;;;;;21.35;6.97;;;21.60;99.90;;;;;;5114521;28;20027;-57
2023/07/25 03:36:01;;;;;;;19.17;7.80;;;21.70;99.90;;;;;;5115864;28;20024;-56
2023/07/25 03:38:27;;;;;;;23.13;8.07;;;21.70;99.90;;;;;;5115660;28;20103;-56
2023/07/25 03:40:53;;;;;;;22.00;7.95;;;21.70;99.90;;;;;;5115770;28;20112;-56
2023/07/25 03:43:20;;;;;;;21.98;7.93;;;21.60;99.90;;;;;;5115530;28;20476;-56
2023/07/25 03:45:46;;;;;;;17.63;7.32;;;21.60;99.90;;;;;;5114283;28;20028;-56
2023/07/25 03:48:12;;;;;;;18.73;8.30;;;21.50;99.90;;;;;;5115663;28;20388;-56
2023/07/25 03:50:39;;;;;;;19.00;7.75;;;21.60;99.90;;;;;;5114334;28;20036;-56
2023/07/25 03:53:05;;;;;;;18.85;8.15;;;21.60;99.90;;;;;;5115363;28;20394;-56
2023/07/25 03:55:32;;;;;;;22.38;8.27;;;21.60;99.90;;;;;;5115424;28;20027;-56
2023/07/25 03:57:58;;;;;;;21.35;9.05;;;21.60;99.90;;;;;;5115474;28;20024;-56
2023/07/25 04:00:23;;;;;;;27.38;9.00;;;21.50;99.90;;;;;;5115354;28;20034;-56
2023/07/25 04:02:49;;;;;;;18.35;9.02;;;21.50;99.90;;;;;;5115400;28;20464;-56
2023/07/25 04:05:15;;;;;;;24.38;8.75;;;21.50;99.90;;;;;;5113912;28;20028;-56
2023/07/25 04:07:41;;;;;;;24.25;9.30;;;21.50;99.90;;;;;;5115225;28;20441;-56
2023/07/25 04:10:08;;;;;;;21.55;9.40;;;21.50;99.90;;;;;;5115236;28;20323;-56
2023/07/25 04:12:34;;;;;;;23.30;9.02;;;21.40;99.90;;;;;;5113625;28;20077;-56
2023/07/25 04:14:59;;;;;;;21.13;7.68;;;21.40;99.90;;;;;;5114667;28;20103;-56
2023/07/25 04:17:25;;;;;;;23.95;9.55;;;21.50;99.90;;;;;;5115183;28;20015;-56
2023/07/25 04:19:51;;;;;;;29.85;9.45;;;21.50;99.90;;;;;;5113646;28;20204;-56
2023/07/25 04:22:17;;;;;;;21.33;8.80;;;21.50;99.90;;;;;;5099431;28;20618;-56
2023/07/25 04:24:43;;;;;;;26.73;9.30;;;21.50;99.90;;;;;;5093368;28;20048;-56
2023/07/25 04:27:09;;;;;;;28.40;8.93;;;21.50;99.90;;;;;;5094541;28;20031;-56
2023/07/25 04:29:35;;;;;;;27.73;10.02;;;21.60;99.90;;;;;;5094735;28;20393;-56
2023/07/25 04:32:01;;;;;;;27.30;9.25;;;21.60;99.90;;;;;;5094440;28;20028;-56
2023/07/25 04:34:27;;;;;;;20.23;8.85;;;21.60;99.90;;;;;;5094512;28;20472;-56
2023/07/25 04:36:53;;;;;;;24.63;8.90;;;21.60;99.90;;;;;;5094598;28;20020;-56
2023/07/25 04:39:19;;;;;;;23.23;9.65;;;21.70;99.90;;;;;;5093383;28;20370;-56
2023/07/25 04:41:45;;;;;;;27.15;10.05;;;21.70;99.90;;;;;;5094254;28;20541;-57
2023/07/25 04:44:11;;;;;;;22.48;9.73;;;21.80;99.90;;;;;;5093181;28;20070;-56
2023/07/25 04:46:37;;;;;;;26.50;9.52;;;21.80;99.90;;;;;;5093223;28;20020;-56
2023/07/25 04:49:05;;;;;;;26.20;10.40;;;21.80;99.90;;;;;;5094207;28;20028;-56
2023/07/25 04:51:31;;;;;;;26.95;10.27;;;21.80;99.90;;;;;;5093178;28;20457;-56
2023/07/25 04:53:57;;;;;;;29.08;10.63;;;21.80;99.90;;;;;;5094370;28;20108;-56
2023/07/25 04:56:23;;;;;;;24.00;10.15;;;22.00;99.90;;;;;;5092810;28;20055;-56
2023/07/25 04:58:49;;;;;;;27.42;10.80;;;22.10;99.90;;;;;;5094400;28;20036;-56
2023/07/25 05:01:15;;;;;;;26.58;10.27;;;22.10;99.90;;;;;;5094606;28;20032;-56
2023/07/25 05:03:41;;;;;;;29.92;10.05;;;22.30;99.90;;;;;;5094142;28;20028;-56
2023/07/25 05:06:07;;;;;;;25.30;9.23;;;22.40;99.90;;;;;;5094593;28;20024;-56
2023/07/25 05:08:33;;;;;;;25.05;9.75;;;22.50;99.90;;;;;;5093952;28;20042;-56
2023/07/25 05:11:01;;;;;;;27.70;9.30;;;22.50;99.90;;;;;;5094033;28;20478;-57
2023/07/25 05:13:26;;;;;;;32.13;11.20;;;22.60;99.90;;;;;;5094152;28;20036;-56
2023/07/25 05:15:52;;;;;;;33.13;10.63;;;22.70;99.90;;;;;;5094159;28;20162;-56
2023/07/25 05:18:18;;;;;;;36.60;11.30;;;22.90;99.90;;;;;;5093896;28;20020;-56
2023/07/25 05:20:44;;;;;;;26.63;9.45;;;23.10;99.90;;;;;;5095155;28;20036;-56
2023/07/25 05:23:10;;;;;;;25.25;9.75;;;23.20;99.90;;;;;;5114216;28;20527;-56
2023/07/25 05:25:37;;;;;;;31.30;10.60;;;23.20;99.90;;;;;;5114331;28;20073;-56
2023/07/25 05:28:03;;;;;;;35.45;11.02;;;23.30;99.90;;;;;;5116419;28;20059;-56
2023/07/25 05:30:29;;;;;;;22.85;9.18;;;23.30;99.90;;;;;;5110081;28;20039;-56
2023/07/25 05:32:55;;;;;;;24.45;10.13;;;23.40;99.90;;;;;;5098362;28;20025;-56
2023/07/25 05:35:21;;;;;;;38.95;10.82;;;23.50;99.90;;;;;;5098392;28;20031;-56
2023/07/25 05:37:47;;;;;;;30.52;9.00;;;23.60;99.90;;;;;;5098056;28;20503;-56
2023/07/25 05:40:13;;;;;;;26.23;9.27;;;23.80;99.90;;;;;;5098307;28;20063;-56
2023/07/25 05:42:39;;;;;;;24.58;9.75;;;23.80;99.90;;;;;;5097433;28;20050;-56
2023/07/25 05:45:05;;;;;;;24.33;9.98;;;23.90;99.90;;;;;;5097276;28;20040;-56
2023/07/25 05:47:31;;;;;;;23.45;9.57;;;24.00;99.90;;;;;;5097505;28;20461;-56
2023/07/25 05:49:57;;;;;;;33.58;10.10;;;24.10;99.90;;;;;;5097430;28;20052;-56
2023/07/25 05:52:23;;;;;;;29.23;11.70;;;24.20;99.90;;;;;;5097112;28;20119;-56
2023/07/25 05:54:49;;;;;;;29.23;11.02;;;24.40;99.90;;;;;;5097393;28;20051;-56
2023/07/25 05:57:15;;;;;;;32.28;11.48;;;24.60;99.90;;;;;;5097024;28;20043;-56
2023/07/25 05:59:43;;;;;;;31.38;11.70;;;24.70;99.90;;;;;;5097108;28;20020;-56
2023/07/25 06:02:10;;;;;;;29.83;12.27;;;24.80;99.90;;;;;;5097317;28;20028;-56
2023/07/25 06:04:36;;;;;;;27.27;11.98;;;25.00;99.90;;;;;;5097272;28;20016;-56
2023/07/25 06:07:05;;;;;;;24.83;11.77;;;25.10;99.90;;;;;;5093893;28;20059;-56
2023/07/25 06:09:31;;;;;;;28.83;10.95;;;25.20;99.90;;;;;;5096618;28;20032;-56
2023/07/25 06:11:56;;;;;;;27.25;9.05;;;25.40;99.90;;;;;;5096994;28;20024;-56
2023/07/25 06:14:22;;;;;;;24.02;10.13;;;25.50;99.90;;;;;;5096445;28;20031;-56
2023/07/25 06:16:51;;;;;;;23.75;10.07;;;25.60;99.90;;;;;;5097037;28;20473;-56
2023/07/25 06:19:17;;;;;;;38.95;12.15;;;25.80;99.90;;;;;;5096825;28;20027;-56
2023/07/25 06:21:43;;;;;;;34.83;11.43;;;25.90;99.90;;;;;;5105857;28;20020;-56
2023/07/25 06:24:09;;;;;;;34.35;11.68;;;26.00;99.90;;;;;;5116956;28;20455;-56
2023/07/25 06:26:35;;;;;;;34.75;12.13;;;26.20;99.90;;;;;;5117093;28;20031;-56
2023/07/25 06:29:01;;;;;;;31.73;11.98;;;26.30;99.90;;;;;;5116555;28;20027;-56
2023/07/25 06:31:27;;;;;;;39.50;14.75;;;26.50;99.30;;;;;;5116796;28;20024;-56
2023/07/25 06:33:53;;;;;;;39.28;14.50;;;26.60;98.10;;;;;;5116806;28;20030;-56
2023/07/25 06:36:19;;;;;;;32.78;13.50;;;26.70;97.10;;;;;;5116544;28;20050;-56
2023/07/25 06:38:45;;;;;;;36.35;14.88;;;26.80;97.40;;;;;;5116435;27;20044;-56
2023/07/25 06:41:11;;;;;;;46.17;16.23;;;26.90;97.00;;;;;;5116910;28;20415;-56
2023/07/25 06:43:37;;;;;;;35.95;14.40;;;27.10;97.00;;;;;;5116276;28;20173;-56
2023/07/25 06:46:04;;;;;;;38.70;14.68;;;27.20;99.00;;;;;;5115572;28;20089;-56
2023/07/25 06:48:30;;;;;;;46.10;15.93;;;27.40;99.80;;;;;;5116736;28;20032;-56
2023/07/25 06:50:56;;;;;;;38.72;14.70;;;27.40;99.20;;;;;;5116347;28;20080;-56
2023/07/25 06:53:22;;;;;;;38.40;14.43;;;27.50;98.60;;;;;;5116596;28;20027;-56
2023/07/25 06:55:51;;;;;;;33.95;14.07;;;27.70;99.90;;;;;;5116256;28;20019;-56
2023/07/25 06:58:18;;;;;;;32.30;13.10;;;27.80;96.90;;;;;;5114968;28;20032;-56
2023/07/25 07:00:45;;;;;;;30.92;13.18;;;27.90;96.20;;;;;;5115358;28;20023;-56
2023/07/25 07:03:12;;;;;;;32.17;15.27;;;27.80;94.60;;;;;;5116335;28;20107;-56
2023/07/25 07:05:38;;;;;;;31.63;13.07;;;27.80;94.50;;;;;;5116057;28;20114;-56
2023/07/25 07:08:04;;;;;;;29.48;12.25;;;27.80;94.10;;;;;;5116122;28;20438;-56
2023/07/25 07:10:35;;;;;;;31.48;14.55;;;27.90;93.60;;;;;;5116143;28;20031;-56
2023/07/25 07:13:01;;;;;;;30.02;12.55;;;28.30;95.90;;;;;;5115833;28;20028;-56
2023/07/25 07:15:27;;;;;;;44.10;14.55;;;28.50;96.60;;;;;;5116234;28;20465;-56
2023/07/25 07:17:53;;;;;;;32.65;13.10;;;28.90;97.50;;;;;;5115448;28;20023;-56
2023/07/25 07:20:20;;;;;;;36.90;13.18;;;29.20;97.20;;;;;;5115408;28;20032;-56
2023/07/25 07:22:46;;;;;;;28.60;12.10;;;29.50;95.50;;;;;;5115105;28;20036;-57
2023/07/25 07:25:12;;;;;;;27.98;11.85;;;29.80;96.90;;;;;;5116448;28;20035;-56
2023/07/25 07:27:38;;;;;;;32.22;14.48;;;30.10;95.30;;;;;;5116146;28;20054;-57
2023/07/25 07:30:05;;;;;;;28.02;13.63;;;30.40;92.20;;;;;;5116686;28;20042;-56
2023/07/25 07:32:34;;;;;;;26.48;13.40;;;30.80;92.50;;;;;;5115982;28;20115;-56
2023/07/25 07:34:59;;;;;;;30.92;13.07;;;31.10;91.00;;;;;;5116504;28;20042;-56
2023/07/25 07:37:25;;;;;;;31.38;13.43;;;31.30;89.90;;;;;;5101470;28;20073;-56
2023/07/25 07:39:51;;;;;;;28.08;13.10;;;31.70;86.90;;;;;;5095867;28;20028;-56
2023/07/25 07:42:17;;;;;;;34.42;12.43;;;32.00;80.70;;;;;;5095818;28;20111;-56
2023/07/25 07:44:43;;;;;;;27.83;11.00;;;31.50;76.50;;;;;;5096108;28;20051;-57
2023/07/25 07:47:09;;;;;;;26.70;10.85;;;31.60;78.80;;;;;;5095792;28;20028;-56
2023/07/25 07:49:35;;;;;;;24.92;10.63;;;31.70;74.20;;;;;;5095050;28;20028;-56
2023/07/25 07:52:01;;;;;;;27.90;11.00;;;32.10;77.50;;;;;;5095703;28;20032;-57
2023/07/25 07:54:27;;;;;;;23.52;10.43;;;32.30;72.50;;;;;;5095650;28;20020;-57
2023/07/25 07:56:53;;;;;;;25.63;9.48;;;32.50;69.80;;;;;;5095432;28;20618;-56
2023/07/25 07:59:18;;;;;;;24.60;10.45;;;32.60;66.90;;;;;;5095779;28;20067;-56
2023/07/25 08:01:44;;;;;;;23.10;9.60;;;33.00;68.80;;;;;;5115207;28;20063;-57
2023/07/25 08:04:11;;;;;;;32.10;10.95;;;33.10;72.60;;;;;;5114584;28;20451;-56
2023/07/25 08:06:37;;;;;;;29.48;10.23;;;33.00;73.20;;;;;;5115951;28;20024;-56
2023/07/25 08:09:03;;;;;;;28.63;10.60;;;33.30;66.50;;;;;;5115567;28;20035;-56
2023/07/25 08:11:29;;;;;;;27.90;10.77;;;33.40;60.20;;;;;;5115788;28;20441;-57
2023/07/25 08:13:54;;;;;;;30.75;11.10;;;33.90;66.70;;;;;;5115846;28;20024;-56
2023/07/25 08:16:20;;;;;;;26.48;9.82;;;34.10;65.60;;;;;;5115591;28;20557;-56
2023/07/25 08:18:46;;;;;;;29.85;10.32;;;34.20;64.90;;;;;;5115278;28;20020;-56
2023/07/25 08:21:12;;;;;;;24.98;10.23;;;34.20;58.90;;;;;;5109962;28;20157;-57
2023/07/25 08:23:38;;;;;;;24.05;11.00;;;34.60;64.30;;;;;;5094233;28;20056;-56
2023/07/25 08:26:04;;;;;;;21.05;9.48;;;34.80;59.00;;;;;;5094594;28;20036;-57
2023/07/25 08:28:29;;;;;;;26.15;10.95;;;34.90;55.50;;;;;;5094374;28;20120;-57
2023/07/25 08:31:00;;;;;;;23.73;10.45;;;35.10;61.50;;;;;;5094392;28;20115;-57
2023/07/25 08:33:28;;;;;;;26.23;9.40;;;35.00;57.40;;;;;;5094400;28;20028;-57
2023/07/25 08:35:54;;;;;;;28.35;11.40;;;34.80;54.10;;;;;;5094429;28;20024;-56
2023/07/25 08:38:20;;;;;;;23.40;9.75;;;35.30;57.00;;;;;;5094172;28;20056;-56
2023/07/25 08:41:04;;;;;;;25.88;10.25;;;35.10;51.90;;;;;;5094453;28;20059;-56
2023/07/25 08:43:34;;;;;;;26.35;9.32;;;35.20;56.40;;;;;;5094096;28;20474;-56
2023/07/25 08:46:03;;;;;;;24.58;9.93;;;35.70;53.10;;;;;;5094531;28;20081;-56
2023/07/25 08:48:31;;;;;;;24.70;9.82;;;35.80;52.80;;;;;;5094489;28;20035;-57
2023/07/25 08:51:01;;;;;;;23.60;9.85;;;35.80;52.00;;;;;;5094223;28;20028;-56
2023/07/25 08:53:28;;;;;;;30.45;11.30;;;36.10;55.70;;;;;;5094526;28;20169;-57
2023/07/25 08:55:56;;;;;;;29.52;9.70;;;36.40;56.30;;;;;;5093954;28;20107;-57
2023/07/25 08:58:24;;;;;;;26.48;9.50;;;36.60;51.50;;;;;;5094576;28;20457;-57
2023/07/25 09:00:50;;;;;;;27.58;10.18;;;36.40;57.50;;;;;;5095342;28;20052;-56
2023/07/25 09:03:16;;;;;;;24.92;9.48;;;36.40;56.20;;;;;;5098861;28;20057;-57
2023/07/25 09:05:43;;;;;;;30.90;9.30;;;36.70;51.70;;;;;;5098775;28;20063;-57
2023/07/25 09:08:09;;;;;;;26.60;9.32;;;36.80;58.80;;;;;;5098836;28;20499;-56
2023/07/25 09:10:35;;;;;;;29.65;10.38;;;36.90;60.00;;;;;;5098805;28;20117;-57
2023/07/25 09:13:01;;;;;;;24.38;8.23;;;36.60;49.50;;;;;;5098839;28;20116;-57
2023/07/25 09:15:27;;;;;;;30.45;9.13;;;37.00;53.40;;;;;;5099080;28;20052;-56
2023/07/25 09:17:53;;;;;;;22.90;8.45;;;37.40;55.00;;;;;;5098578;28;20032;-56
2023/07/25 09:20:20;;;;;;;24.70;9.38;;;37.70;46.40;;;;;;5098581;28;20024;-57
2023/07/25 09:22:48;;;;;;;29.75;9.43;;;37.80;52.20;;;;;;5114378;28;20035;-57
2023/07/25 09:25:15;;;;;;;28.30;9.10;;;37.70;45.60;;;;;;5119114;28;20102;-57
2023/07/25 09:27:46;;;;;;;19.25;8.07;;;37.30;43.90;;;;;;5118938;28;20429;-57
2023/07/25 09:30:14;;;;;;;26.33;8.27;;;37.10;54.70;;;;;;5118701;28;20027;-57
2023/07/25 09:32:50;;;;;;;32.90;9.27;;;37.20;53.90;;;;;;5118501;28;20464;-57
2023/07/25 09:35:16;;;;;;;30.80;8.93;;;37.30;51.00;;;;;;5118751;28;20075;-57
2023/07/25 09:37:42;;;;;;;27.95;9.15;;;37.30;51.40;;;;;;5118934;28;20050;-57
2023/07/25 09:40:10;;;;;;;18.80;7.05;;;37.40;47.60;;;;;;5118519;28;20059;-57
2023/07/25 09:42:42;;;;;;;21.98;7.85;;;37.20;44.70;;;;;;5118945;28;20091;-57
2023/07/25 09:45:10;;;;;;;21.98;7.38;;;37.40;46.40;;;;;;5118833;28;20036;-56
2023/07/25 09:47:37;;;;;;;24.65;8.82;;;37.10;48.10;;;;;;5118077;28;20047;-57
2023/07/25 09:50:07;;;;;;;21.58;8.20;;;36.70;43.90;;;;;;5116953;28;20039;-57
2023/07/25 09:52:43;;;;;;;21.05;7.47;;;36.60;47.10;;;;;;5117463;28;20118;-57
2023/07/25 09:55:10;;;;;;;21.70;8.15;;;36.30;44.60;;;;;;5118070;28;20066;-57
2023/07/25 09:57:36;;;;;;;20.42;7.50;;;36.10;50.60;;;;;;5118436;28;20031;-57
2023/07/25 10:00:05;;;;;;;24.80;8.43;;;35.90;53.20;;;;;;5118430;28;20484;-57
2023/07/25 10:02:33;;;;;;;19.80;6.93;;;35.60;57.60;;;;;;5118293;28;20035;-57
2023/07/25 10:05:00;;;;;;;25.40;8.15;;;34.70;58.90;;;;;;5118767;28;20028;-57
2023/07/25 10:07:27;;;;;;;25.02;8.10;;;34.30;64.90;;;;;;5118369;27;20028;-57
2023/07/25 10:09:56;;;;;;;23.33;8.52;;;33.90;67.20;;;;;;5117792;27;20486;-57
2023/07/25 10:12:22;;;;;;;21.00;8.83;;;33.90;74.90;;;;;;5116723;28;20476;-57
2023/07/25 10:14:49;;;;;;;28.30;10.25;;;34.10;75.10;;;;;;5116786;28;20658;-57
2023/07/25 10:17:15;;;;;;;22.40;8.18;;;34.10;74.00;;;;;;5110949;28;20068;-57
2023/07/25 10:19:55;;;;;;;21.63;8.77;;;34.40;76.30;;;;;;5096876;28;20024;-57
2023/07/25 10:22:33;;;;;;;;;;;34.80;76.20;;;;;;5111892;28;20031;-57
2023/07/25 10:24:59;;;;;;;22.13;8.93;;;35.20;67.90;;;;;;5116825;28;19922;-57
2023/07/25 10:27:26;;;;;;;24.88;8.93;;;35.70;61.50;;;;;;5117163;28;20683;-57
2023/07/25 10:29:52;;;;;;;32.78;9.48;;;36.00;61.90;;;;;;5116907;28;20035;-57
2023/07/25 10:32:22;;;;;;;25.75;9.23;;;36.40;65.50;;;;;;5116618;28;20047;-57
2023/07/25 10:35:01;;;;;;;24.63;9.07;;;37.00;70.30;;;;;;5117005;28;20020;-57
2023/07/25 10:37:28;;;;;;;23.10;8.17;;;37.20;53.90;;;;;;5116952;28;20028;-57
2023/07/25 10:40:09;;;;;;;21.85;8.77;;;37.00;58.50;;;;;;5116505;28;20031;-57
2023/07/25 10:42:50;;;;;;;20.25;8.57;;;37.10;62.30;;;;;;5116731;28;20073;-57
2023/07/25 10:45:39;;;;;;;23.42;8.02;;;36.90;62.60;;;;;;5116168;28;20085;-57
2023/07/25 10:48:28;;;;;;;24.10;9.05;;;36.90;65.50;;;;;;5116367;28;20105;-57
2023/07/25 10:50:54;;;;;;;20.85;8.15;;;37.30;64.60;;;;;;5116686;28;20030;-57
2023/07/25 10:53:21;;;;;;;25.25;9.95;;;37.00;67.30;;;;;;5116352;28;20032;-57
2023/07/25 10:56:06;;;;;;;25.77;9.65;;;37.20;64.70;;;;;;5116429;28;20048;-57
2023/07/25 10:58:40;;;;;;;22.17;9.40;;;37.30;63.30;;;;;;5116345;28;20107;-57
2023/07/25 11:01:07;;;;;;;19.70;9.27;;;37.30;59.90;;;;;;5114058;28;20024;-57
2023/07/25 11:03:37;;;;;;;27.25;9.32;;;37.30;57.10;;;;;;5116570;28;20034;-58
2023/07/25 11:06:05;;;;;;;;;;;37.20;61.50;;;;;;5116754;28;20102;-57
2023/07/25 11:08:33;;;;;;;33.25;9.18;;;36.80;55.90;;;;;;5116257;28;19999;-57
2023/07/25 11:11:10;;;;;;;25.92;9.32;;;35.90;63.20;;;;;;5116228;28;20058;-57
2023/07/25 11:13:37;;;;;;;21.58;9.15;;;35.30;66.60;;;;;;5115999;28;20115;-57
2023/07/25 11:16:04;;;;;;;22.98;9.43;;;34.70;70.00;;;;;;5116175;28;20496;-57
2023/07/25 11:18:37;;;;;;;24.70;9.70;;;34.20;72.00;;;;;;5116360;28;20070;-57
2023/07/25 11:21:07;;;;;;;32.20;10.35;;;33.70;73.80;;;;;;5116037;28;20058;-57
2023/07/25 11:23:34;;;;;;;32.08;10.52;;;33.30;74.70;;;;;;5115645;28;20081;-57
2023/07/25 11:26:08;;;;;;;31.40;10.50;;;32.90;77.60;;;;;;5115938;28;20035;-57
2023/07/25 11:28:37;;;;;;;57.75;13.65;;;32.70;79.40;;;;;;5115757;28;20396;-57
2023/07/25 11:31:03;;;;;;;47.30;15.07;;;32.50;81.50;;;;;;5115914;28;20039;-57
2023/07/25 11:33:41;;;;;;;45.97;17.23;;;32.50;82.10;;;;;;5115743;28;20032;-57
2023/07/25 11:36:07;;;;;;;44.17;18.55;;;32.30;85.20;;;;;;5115574;27;20102;-57
2023/07/25 11:38:36;;;;;;;47.28;17.67;;;32.20;85.50;;;;;;5115879;28;20077;-57
2023/07/25 11:41:03;;;;;;;44.77;17.80;;;32.00;88.00;;;;;;5114037;28;20453;-57
2023/07/25 11:43:31;;;;;;;43.42;17.80;;;31.80;80.90;;;;;;5115330;28;20035;-57
2023/07/25 11:45:57;;;;;;;43.10;17.45;;;31.90;85.70;;;;;;5115809;28;20053;-57
2023/07/25 11:48:23;;;;;;;44.55;16.55;;;32.10;79.60;;;;;;5114996;28;20032;-58
2023/07/25 11:50:51;;;;;;;36.80;15.23;;;32.10;81.10;;;;;;5115187;28;20441;-58
2023/07/25 11:53:22;;;;;;;52.65;19.15;;;32.50;76.90;;;;;;5115410;28;20034;-57
2023/07/25 11:55:50;;;;;;;44.95;18.92;;;32.40;74.10;;;;;;5114959;28;20058;-57
2023/07/25 11:58:19;;;;;;;42.47;18.17;;;32.60;73.70;;;;;;5115580;28;20044;-57
2023/07/25 12:00:51;;;;;;;39.67;15.15;;;32.50;74.20;;;;;;5102296;28;20024;-57
2023/07/25 12:03:24;;;;;;;37.08;14.07;;;32.50;74.20;;;;;;5094483;28;20544;-57
2023/07/25 12:05:55;;;;;;;32.67;13.85;;;32.80;73.80;;;;;;5094962;28;20366;-57
2023/07/25 12:08:44;;;;;;;31.77;10.95;;;32.80;72.10;;;;;;5094791;28;20497;-57
2023/07/25 12:11:15;;;;;;;25.07;10.83;;;33.00;71.50;;;;;;5094480;28;20385;-57
2023/07/25 12:13:54;;;;;;;28.65;10.48;;;33.10;71.70;;;;;;5094589;28;20028;-57
2023/07/25 12:16:27;;;;;;;39.42;10.88;;;33.30;68.80;;;;;;5094665;28;20048;-57
2023/07/25 12:18:56;;;;;;;25.00;10.27;;;33.20;65.60;;;;;;5094406;28;20074;-57
2023/07/25 12:21:33;;;;;;;32.00;10.10;;;33.10;66.40;;;;;;5101308;28;20073;-57
2023/07/25 12:24:01;;;;;;;30.10;10.50;;;32.80;73.90;;;;;;5114635;28;20279;-57
2023/07/25 12:26:28;;;;;;;24.75;9.38;;;32.60;69.30;;;;;;5115009;28;20032;-57
2023/07/25 12:28:55;;;;;;;21.38;9.05;;;33.00;74.30;;;;;;5114715;28;20358;-57
2023/07/25 12:31:22;;;;;;;35.72;11.68;;;33.20;69.70;;;;;;5114692;28;20042;-57
2023/07/25 12:33:50;;;;;;;24.67;8.88;;;33.60;63.20;;;;;;5114775;28;20035;-57